Time;durP1;ratioP1;P1;durP2;ratioP2;P2;SDS_P1;SDS_P2;PMS_P1;PMS_P2;Temp;Humidity;BMP_temperature;BMP_pressure;BME280_temperature;BME280_humidity;BME280_pressure;Samples;Min_cycle;Max_cycle;Signal;HPM_P1;HPM_P2
2022/10/01 00:00:33;;;;;;;7.03;6.32;;;11.60;99.90;;;;;;5060179;28;20508;-58
2022/10/01 00:02:59;;;;;;;7.78;6.20;;;11.50;99.90;;;;;;5033263;28;20030;-57
2022/10/01 00:05:25;;;;;;;10.13;5.88;;;11.50;99.90;;;;;;5043311;28;20021;-56
2022/10/01 00:07:50;;;;;;;8.75;6.80;;;11.50;99.90;;;;;;5038582;28;20411;-56
2022/10/01 00:10:16;;;;;;;7.75;6.95;;;11.50;99.90;;;;;;5039433;28;20033;-56
2022/10/01 00:12:47;;;;;;;9.77;6.53;;;11.50;99.90;;;;;;5048413;28;20025;-57
2022/10/01 00:15:16;;;;;;;9.52;6.93;;;11.40;99.90;;;;;;5053830;28;20087;-57
2022/10/01 00:17:42;;;;;;;8.93;7.28;;;11.40;99.90;;;;;;5055590;28;20035;-57
2022/10/01 00:20:10;;;;;;;8.05;7.18;;;11.30;99.90;;;;;;5055843;28;20520;-57
2022/10/01 00:22:35;;;;;;;7.88;7.03;;;11.30;99.90;;;;;;5042596;28;20052;-56
2022/10/01 00:25:01;;;;;;;7.80;6.65;;;11.30;99.90;;;;;;5054150;28;20492;-56
2022/10/01 00:27:27;;;;;;;8.88;7.15;;;11.30;99.90;;;;;;5055218;28;20021;-56
2022/10/01 00:29:53;;;;;;;9.05;6.50;;;11.30;99.90;;;;;;5054442;28;20028;-56
2022/10/01 00:32:20;;;;;;;8.50;7.13;;;11.30;99.90;;;;;;5055121;28;20025;-56
2022/10/01 00:34:46;;;;;;;11.38;7.57;;;11.30;99.90;;;;;;5047906;28;20030;-56
2022/10/01 00:37:11;;;;;;;9.50;6.68;;;11.30;99.90;;;;;;5048642;28;20511;-57
2022/10/01 00:39:37;;;;;;;8.60;7.57;;;11.30;99.90;;;;;;5043128;28;20086;-57
2022/10/01 00:42:17;;;;;;;9.60;8.55;;;11.30;99.90;;;;;;5054845;28;20126;-55
2022/10/01 00:44:43;;;;;;;9.15;7.60;;;11.30;99.90;;;;;;5063899;28;20495;-57
2022/10/01 00:47:35;;;;;;;9.85;7.03;;;11.30;99.90;;;;;;5055112;28;20017;-57
2022/10/01 00:50:08;;;;;;;7.97;7.13;;;11.30;99.90;;;;;;5055302;28;20676;-56
2022/10/01 00:52:38;;;;;;;8.63;7.57;;;11.30;99.90;;;;;;5054980;28;20029;-57
2022/10/01 00:55:11;;;;;;;9.70;7.43;;;11.30;99.90;;;;;;5054939;28;20047;-56
2022/10/01 00:57:37;;;;;;;10.98;7.80;;;11.30;99.90;;;;;;5054830;28;20021;-56
2022/10/01 01:00:06;;;;;;;9.55;7.60;;;11.30;99.90;;;;;;5035282;28;20024;-56
2022/10/01 01:02:32;;;;;;;11.35;7.93;;;11.20;99.90;;;;;;5035653;28;20029;-56
2022/10/01 01:04:58;;;;;;;9.60;7.85;;;11.20;99.90;;;;;;5046733;28;20560;-50
2022/10/01 01:07:24;;;;;;;11.60;8.27;;;11.20;99.90;;;;;;5035538;28;20493;-55
2022/10/01 01:09:52;;;;;;;8.80;7.85;;;11.20;99.90;;;;;;5054783;28;20056;-56
2022/10/01 01:12:32;;;;;;;15.23;8.13;;;11.20;99.90;;;;;;5040248;28;20036;-55
2022/10/01 01:15:27;;;;;;;9.57;7.97;;;11.20;99.90;;;;;;5044936;28;20024;-54
2022/10/01 01:17:55;;;;;;;12.18;8.40;;;11.10;99.90;;;;;;5038862;28;20033;-55
2022/10/01 01:20:51;;;;;;;10.35;8.70;;;11.00;99.90;;;;;;5039667;28;20028;-57
2022/10/01 01:23:17;;;;;;;10.23;9.05;;;11.00;99.90;;;;;;5034808;28;20018;-56
2022/10/01 01:25:54;;;;;;;10.65;8.82;;;11.00;99.90;;;;;;5047677;28;20124;-56
2022/10/01 01:28:24;;;;;;;11.05;8.35;;;10.90;99.90;;;;;;5046805;28;20029;-57
2022/10/01 01:30:54;;;;;;;11.82;8.60;;;11.00;99.90;;;;;;5052512;28;20042;-54
2022/10/01 01:33:23;;;;;;;9.63;8.63;;;11.00;99.90;;;;;;5042378;28;20039;-54
2022/10/01 01:35:59;;;;;;;8.88;7.75;;;11.00;99.90;;;;;;5041115;28;20489;-56
2022/10/01 01:38:29;;;;;;;8.68;7.78;;;10.90;99.90;;;;;;5054151;28;20033;-56
2022/10/01 01:40:59;;;;;;;9.88;8.30;;;11.00;99.90;;;;;;5053972;28;20045;-55
2022/10/01 01:43:30;;;;;;;10.43;7.72;;;11.00;99.90;;;;;;5052885;28;20021;-56
2022/10/01 01:45:58;;;;;;;9.60;7.03;;;11.00;99.90;;;;;;5041465;28;20021;-55
2022/10/01 01:48:27;;;;;;;9.10;7.00;;;11.00;99.90;;;;;;5052593;28;20100;-54
2022/10/01 01:51:03;;;;;;;8.52;5.93;;;11.00;99.90;;;;;;5054335;28;20116;-55
2022/10/01 01:53:30;;;;;;;7.55;5.57;;;11.00;99.90;;;;;;5053588;28;20029;-55
2022/10/01 01:55:56;;;;;;;7.90;6.30;;;11.10;99.90;;;;;;5054016;28;20028;-55
2022/10/01 01:58:25;;;;;;;7.75;6.20;;;11.10;99.90;;;;;;5053451;28;20496;-58
2022/10/01 02:00:51;;;;;;;8.98;7.43;;;11.10;99.90;;;;;;5054121;28;20035;-56
2022/10/01 02:03:22;;;;;;;7.70;6.13;;;11.10;99.90;;;;;;5069160;28;20386;-55
2022/10/01 02:06:17;;;;;;;6.40;5.45;;;11.10;99.90;;;;;;5052419;28;20457;-55
2022/10/01 02:08:54;;;;;;;6.78;5.30;;;11.20;99.90;;;;;;5044843;28;20108;-56
2022/10/01 02:11:27;;;;;;;6.18;4.55;;;11.20;99.90;;;;;;5040764;28;20123;-55
2022/10/01 02:14:27;;;;;;;5.68;4.20;;;11.20;99.90;;;;;;5052953;28;20028;-57
2022/10/01 02:17:00;;;;;;;5.22;4.10;;;11.20;99.90;;;;;;5052475;28;20032;-54
2022/10/01 02:19:34;;;;;;;6.00;4.55;;;11.20;99.90;;;;;;5056472;28;20021;-56
2022/10/01 02:22:08;;;;;;;6.60;3.70;;;11.20;99.90;;;;;;5051069;28;20075;-55
2022/10/01 02:24:46;;;;;;;4.72;3.75;;;11.20;99.90;;;;;;5053375;28;20025;-55
2022/10/01 02:27:17;;;;;;;4.20;3.60;;;11.20;99.90;;;;;;5053041;28;20029;-56
2022/10/01 02:29:44;;;;;;;4.35;3.50;;;11.20;99.90;;;;;;5053024;28;20029;-55
2022/10/01 02:32:12;;;;;;;5.43;3.70;;;11.20;99.90;;;;;;5052144;28;20566;-56
2022/10/01 02:34:39;;;;;;;5.57;3.90;;;11.20;99.90;;;;;;5052561;28;20094;-55
2022/10/01 02:37:06;;;;;;;4.85;3.08;;;11.20;99.90;;;;;;5039306;28;20029;-55
2022/10/01 02:39:34;;;;;;;4.10;3.05;;;11.20;99.90;;;;;;5040018;28;20123;-57
2022/10/01 02:42:02;;;;;;;3.78;3.38;;;11.20;99.90;;;;;;5038139;28;20045;-56
2022/10/01 02:44:36;;;;;;;3.80;3.33;;;11.10;99.90;;;;;;5052862;28;20021;-55
2022/10/01 02:47:09;;;;;;;4.07;3.05;;;11.10;99.90;;;;;;5049140;28;20032;-56
2022/10/01 02:49:40;;;;;;;5.90;2.90;;;11.10;99.90;;;;;;5042080;28;20083;-56
2022/10/01 02:52:33;;;;;;;3.33;2.80;;;11.20;99.90;;;;;;5052485;28;20028;-56
2022/10/01 02:55:16;;;;;;;3.97;2.60;;;11.20;99.90;;;;;;5056572;28;20021;-56
2022/10/01 02:57:42;;;;;;;4.03;3.08;;;11.20;99.90;;;;;;5060434;28;20112;-56
2022/10/01 03:00:14;;;;;;;2.45;2.10;;;11.20;99.90;;;;;;5048119;28;20124;-56
2022/10/01 03:02:40;;;;;;;4.00;2.30;;;11.20;99.90;;;;;;5045006;28;20031;-56
2022/10/01 03:05:06;;;;;;;2.85;2.42;;;11.20;99.90;;;;;;5032499;28;20116;-54
2022/10/01 03:07:34;;;;;;;2.45;1.98;;;11.20;99.90;;;;;;5045366;28;20032;-54
2022/10/01 03:10:00;;;;;;;2.80;2.10;;;11.20;99.90;;;;;;5044928;28;20021;-57
2022/10/01 03:12:26;;;;;;;2.42;2.10;;;11.20;99.90;;;;;;5045647;28;20136;-56
2022/10/01 03:14:52;;;;;;;2.05;1.85;;;11.20;99.90;;;;;;5050913;28;20535;-56
2022/10/01 03:17:18;;;;;;;3.83;1.95;;;11.30;99.90;;;;;;5052337;28;20025;-56
2022/10/01 03:19:44;;;;;;;3.13;2.20;;;11.30;99.90;;;;;;5051254;28;20059;-57
2022/10/01 03:22:12;;;;;;;2.75;1.92;;;11.30;99.90;;;;;;5051111;28;20055;-55
2022/10/01 03:24:38;;;;;;;2.17;1.80;;;11.30;99.90;;;;;;5052143;28;20032;-55
2022/10/01 03:27:04;;;;;;;2.88;1.92;;;11.30;99.90;;;;;;5050439;28;20033;-56
2022/10/01 03:29:30;;;;;;;2.95;1.80;;;11.40;99.90;;;;;;5050707;28;20071;-57
2022/10/01 03:31:55;;;;;;;2.92;1.75;;;11.40;99.90;;;;;;5052548;28;20021;-56
2022/10/01 03:34:22;;;;;;;2.30;1.58;;;11.40;99.90;;;;;;5051982;28;20039;-56
2022/10/01 03:36:48;;;;;;;2.58;1.70;;;11.40;99.90;;;;;;5051007;28;20111;-56
2022/10/01 03:39:14;;;;;;;3.03;1.83;;;11.50;99.90;;;;;;5050818;28;20477;-55
2022/10/01 03:41:40;;;;;;;2.22;1.60;;;11.50;99.90;;;;;;5040744;28;20120;-56
2022/10/01 03:44:06;;;;;;;2.63;1.70;;;11.50;99.90;;;;;;5032088;28;20041;-56
2022/10/01 03:46:31;;;;;;;3.08;1.33;;;11.50;99.90;;;;;;5032611;28;20030;-55
2022/10/01 03:48:58;;;;;;;2.65;1.23;;;11.60;99.90;;;;;;5049244;28;20023;-56
2022/10/01 03:51:24;;;;;;;1.77;1.30;;;11.60;99.90;;;;;;5055951;28;20492;-57
2022/10/01 03:53:49;;;;;;;2.22;1.40;;;11.60;99.90;;;;;;5056321;28;20059;-57
2022/10/01 03:56:17;;;;;;;1.77;1.20;;;11.70;99.90;;;;;;5055956;28;20081;-56
2022/10/01 03:58:42;;;;;;;1.83;1.23;;;11.80;99.90;;;;;;5056288;28;20472;-56
2022/10/01 04:01:08;;;;;;;1.65;1.10;;;11.80;99.90;;;;;;5054523;28;20120;-56
2022/10/01 04:03:33;;;;;;;2.10;1.52;;;11.90;99.90;;;;;;5055995;28;20092;-57
2022/10/01 04:05:59;;;;;;;2.05;1.00;;;11.90;99.90;;;;;;5055709;28;20029;-56
2022/10/01 04:08:25;;;;;;;2.25;1.45;;;11.90;99.90;;;;;;5055981;28;20100;-56
2022/10/01 04:10:50;;;;;;;1.90;1.50;;;11.90;99.90;;;;;;5054276;28;20061;-57
2022/10/01 04:13:16;;;;;;;2.97;0.93;;;12.00;99.90;;;;;;5055546;28;20438;-56
2022/10/01 04:15:42;;;;;;;1.88;1.00;;;12.00;99.90;;;;;;5053797;28;20037;-56
2022/10/01 04:18:08;;;;;;;1.55;1.00;;;12.00;99.90;;;;;;5054706;28;20181;-56
2022/10/01 04:20:36;;;;;;;2.03;0.90;;;12.10;99.90;;;;;;5055187;28;20410;-56
2022/10/01 04:23:02;;;;;;;1.00;0.70;;;12.10;99.90;;;;;;5055291;28;20013;-55
2022/10/01 04:25:28;;;;;;;1.75;1.00;;;12.10;99.90;;;;;;5054164;28;20021;-56
2022/10/01 04:27:59;;;;;;;1.60;0.95;;;12.20;99.90;;;;;;5054264;28;20100;-57
2022/10/01 04:30:31;;;;;;;1.15;0.80;;;12.20;99.90;;;;;;5043966;28;20445;-56
2022/10/01 04:32:57;;;;;;;0.82;0.70;;;12.20;99.90;;;;;;5053176;28;20381;-57
2022/10/01 04:35:23;;;;;;;2.85;0.80;;;12.30;99.90;;;;;;5055591;28;20033;-55
2022/10/01 04:38:15;;;;;;;1.48;0.77;;;12.20;99.90;;;;;;5054826;28;20029;-56
2022/10/01 04:40:48;;;;;;;1.15;0.75;;;12.30;99.90;;;;;;5051992;28;20143;-56
2022/10/01 04:43:14;;;;;;;1.10;0.80;;;12.30;99.90;;;;;;5054177;28;20111;-56
2022/10/01 04:45:39;;;;;;;1.73;0.90;;;12.30;99.90;;;;;;5053795;28;20120;-56
2022/10/01 04:48:05;;;;;;;1.05;0.70;;;12.40;99.90;;;;;;5055327;28;20021;-56
2022/10/01 04:50:31;;;;;;;0.90;0.70;;;12.40;99.90;;;;;;5040198;28;20029;-56
2022/10/01 04:52:56;;;;;;;0.98;0.70;;;12.40;99.90;;;;;;5039205;28;20060;-56
2022/10/01 04:55:22;;;;;;;1.92;0.80;;;12.40;99.90;;;;;;5053701;28;20438;-57
2022/10/01 04:57:48;;;;;;;1.05;0.80;;;12.50;99.90;;;;;;5044706;28;20037;-55
2022/10/01 05:00:23;;;;;;;1.42;0.77;;;12.50;99.90;;;;;;5038874;28;20031;-56
2022/10/01 05:02:49;;;;;;;2.28;0.77;;;12.60;99.90;;;;;;5039236;28;20416;-57
2022/10/01 05:05:17;;;;;;;1.05;0.80;;;12.50;99.90;;;;;;5048130;28;20068;-56
2022/10/01 05:07:42;;;;;;;1.33;0.70;;;12.60;99.90;;;;;;5049545;28;20045;-56
2022/10/01 05:10:14;;;;;;;1.38;0.95;;;12.60;99.90;;;;;;5045029;28;20051;-55
2022/10/01 05:12:40;;;;;;;1.83;0.70;;;12.60;99.90;;;;;;5040615;28;20060;-56
2022/10/01 05:15:07;;;;;;;2.17;0.90;;;12.60;99.90;;;;;;5045191;28;20059;-55
2022/10/01 05:17:33;;;;;;;1.25;0.70;;;12.60;99.90;;;;;;5039165;28;20044;-55
2022/10/01 05:19:59;;;;;;;1.20;0.90;;;12.60;99.90;;;;;;5037424;28;20022;-56
2022/10/01 05:22:24;;;;;;;1.70;0.90;;;12.70;99.90;;;;;;5050728;28;20396;-57
2022/10/01 05:24:50;;;;;;;1.98;0.98;;;12.70;99.90;;;;;;5052334;28;20489;-55
2022/10/01 05:27:16;;;;;;;1.75;0.90;;;12.70;99.90;;;;;;5052479;28;20100;-56
2022/10/01 05:29:42;;;;;;;1.25;1.00;;;12.70;99.90;;;;;;5053441;28;20032;-55
2022/10/01 05:32:09;;;;;;;1.30;0.90;;;12.70;99.90;;;;;;5053848;28;20025;-57
2022/10/01 05:34:35;;;;;;;2.65;1.20;;;12.80;99.90;;;;;;5052711;28;20166;-57
2022/10/01 05:37:01;;;;;;;1.95;1.15;;;12.80;99.90;;;;;;5054600;28;20389;-56
2022/10/01 05:39:28;;;;;;;1.55;1.10;;;12.80;99.90;;;;;;5053965;28;20431;-56
2022/10/01 05:41:54;;;;;;;1.20;1.10;;;12.80;99.90;;;;;;5041015;28;20576;-57
2022/10/01 05:44:23;;;;;;;2.40;1.17;;;12.80;99.90;;;;;;5052870;28;20017;-56
2022/10/01 05:46:49;;;;;;;2.17;1.50;;;12.80;99.90;;;;;;5052592;28;20380;-56
2022/10/01 05:49:16;;;;;;;3.25;1.90;;;12.80;99.90;;;;;;5052968;28;20025;-56
2022/10/01 05:51:42;;;;;;;2.35;2.15;;;12.90;99.90;;;;;;5053938;28;20021;-56
2022/10/01 05:54:08;;;;;;;2.65;2.45;;;12.90;99.90;;;;;;5052630;28;20112;-54
2022/10/01 05:56:33;;;;;;;4.50;2.80;;;12.90;99.90;;;;;;5053254;28;20148;-56
2022/10/01 05:59:05;;;;;;;3.80;3.10;;;12.90;99.90;;;;;;5042660;28;20074;-56
2022/10/01 06:01:31;;;;;;;3.90;2.78;;;12.90;99.90;;;;;;5051555;28;20490;-57
2022/10/01 06:03:57;;;;;;;3.22;2.95;;;12.90;99.90;;;;;;5041971;28;20028;-56
2022/10/01 06:06:26;;;;;;;4.10;3.45;;;13.00;99.90;;;;;;5046786;28;20469;-56
2022/10/01 06:08:52;;;;;;;3.58;3.28;;;13.00;99.90;;;;;;5034173;28;20474;-56
2022/10/01 06:11:20;;;;;;;4.60;4.03;;;13.00;99.90;;;;;;5051796;28;20040;-56
2022/10/01 06:13:46;;;;;;;4.80;4.13;;;13.00;99.90;;;;;;5052383;28;20033;-56
2022/10/01 06:16:13;;;;;;;4.90;4.50;;;13.00;99.90;;;;;;5033955;28;20043;-56
2022/10/01 06:18:40;;;;;;;6.00;4.03;;;13.10;99.90;;;;;;5034057;28;20508;-57
2022/10/01 06:21:05;;;;;;;5.10;4.63;;;13.10;99.90;;;;;;5040004;28;20025;-56
2022/10/01 06:23:32;;;;;;;5.32;4.82;;;13.10;99.90;;;;;;5057548;28;20388;-55
2022/10/01 06:25:59;;;;;;;5.60;5.10;;;13.20;99.90;;;;;;5045801;28;20024;-55
2022/10/01 06:28:25;;;;;;;6.15;5.57;;;13.20;99.90;;;;;;5048389;28;20028;-57
2022/10/01 06:30:50;;;;;;;6.65;5.93;;;13.20;99.90;;;;;;5051529;28;20021;-57
2022/10/01 06:33:17;;;;;;;7.18;6.25;;;13.20;99.90;;;;;;5041676;28;20028;-57
2022/10/01 06:35:48;;;;;;;8.88;6.22;;;13.30;99.90;;;;;;5052696;28;20025;-56
2022/10/01 06:38:15;;;;;;;7.05;6.43;;;13.30;99.90;;;;;;5051935;28;20435;-56
2022/10/01 06:40:41;;;;;;;7.47;6.78;;;13.30;99.90;;;;;;5039418;28;20029;-56
2022/10/01 06:43:08;;;;;;;6.35;5.85;;;13.40;99.90;;;;;;5053313;28;20082;-55
2022/10/01 06:45:41;;;;;;;7.78;6.97;;;13.40;99.90;;;;;;5038241;28;20464;-56
2022/10/01 06:48:07;;;;;;;7.70;7.03;;;13.40;99.90;;;;;;5051556;28;20113;-56
2022/10/01 06:50:33;;;;;;;7.88;7.18;;;13.40;99.90;;;;;;5042233;28;20028;-56
2022/10/01 06:52:59;;;;;;;9.05;8.15;;;13.40;99.90;;;;;;5039559;28;20543;-57
2022/10/01 06:55:28;;;;;;;7.68;6.45;;;13.50;99.90;;;;;;5043592;28;20033;-56
2022/10/01 06:58:02;;;;;;;7.35;6.72;;;13.50;99.90;;;;;;5045083;28;20163;-57
2022/10/01 07:00:29;;;;;;;7.75;6.95;;;13.50;99.90;;;;;;5033593;28;20021;-56
2022/10/01 07:02:55;;;;;;;7.85;7.05;;;13.50;99.90;;;;;;5048356;28;20017;-56
2022/10/01 07:05:22;;;;;;;7.88;7.18;;;13.60;99.90;;;;;;5042758;28;20022;-55
2022/10/01 07:07:48;;;;;;;8.07;7.38;;;13.60;99.90;;;;;;5048642;28;20104;-56
2022/10/01 07:10:14;;;;;;;7.88;7.28;;;13.70;99.90;;;;;;5041193;28;20080;-56
2022/10/01 07:12:40;;;;;;;9.15;8.02;;;13.70;99.90;;;;;;5049002;28;20079;-56
2022/10/01 07:15:07;;;;;;;9.10;8.20;;;13.80;99.90;;;;;;5051144;28;20029;-57
2022/10/01 07:17:36;;;;;;;9.52;8.73;;;13.80;99.90;;;;;;5048152;28;20025;-55
2022/10/01 07:20:02;;;;;;;9.68;8.27;;;13.70;99.90;;;;;;5033305;28;20079;-57
2022/10/01 07:22:32;;;;;;;10.30;9.30;;;13.80;99.90;;;;;;5046366;28;20018;-56
2022/10/01 07:24:58;;;;;;;10.85;9.77;;;13.90;99.90;;;;;;5032967;28;20026;-57
2022/10/01 07:27:24;;;;;;;10.10;9.20;;;13.90;99.90;;;;;;5050569;28;20108;-57
2022/10/01 07:30:00;;;;;;;10.75;9.75;;;14.00;99.90;;;;;;5052414;28;20025;-56
2022/10/01 07:32:26;;;;;;;10.52;9.57;;;14.00;99.90;;;;;;5049300;28;20037;-56
2022/10/01 07:34:51;;;;;;;9.80;8.88;;;14.00;99.90;;;;;;5055700;28;20033;-56
2022/10/01 07:37:17;;;;;;;11.10;10.20;;;14.10;99.90;;;;;;5055962;28;20021;-56
2022/10/01 07:39:43;;;;;;;10.40;9.60;;;14.10;99.90;;;;;;5052367;28;20487;-56
2022/10/01 07:42:09;;;;;;;11.70;10.75;;;14.20;99.90;;;;;;5050680;28;20454;-56
2022/10/01 07:44:34;;;;;;;11.45;10.50;;;14.30;99.90;;;;;;5052126;28;20024;-56
2022/10/01 07:47:00;;;;;;;10.77;9.82;;;14.40;99.90;;;;;;5049736;28;20029;-57
2022/10/01 07:49:26;;;;;;;10.27;9.23;;;14.50;99.90;;;;;;5039843;28;20025;-56
2022/10/01 07:51:55;;;;;;;12.73;11.63;;;14.60;99.90;;;;;;5041363;28;20017;-56
2022/10/01 07:54:21;;;;;;;13.65;12.25;;;14.80;99.90;;;;;;5042517;28;20021;-56
2022/10/01 07:56:50;;;;;;;13.40;11.18;;;14.90;99.90;;;;;;5034779;28;20508;-54
2022/10/01 07:59:16;;;;;;;12.52;11.32;;;15.00;99.90;;;;;;5044341;28;20057;-57
2022/10/01 08:01:42;;;;;;;11.00;10.00;;;15.00;99.90;;;;;;5052086;28;20032;-57
2022/10/01 08:06:52;;;;;;;12.48;10.98;;;15.00;99.90;;;;;;5034893;28;20032;-57
2022/10/01 08:09:18;;;;;;;16.30;11.38;;;15.00;99.90;;;;;;5047939;28;20009;-57
2022/10/01 08:11:44;;;;;;;12.18;10.98;;;15.00;99.90;;;;;;5041319;28;20078;-57
2022/10/01 08:14:10;;;;;;;11.88;10.68;;;15.00;99.90;;;;;;5049283;28;20021;-56
2022/10/01 08:16:38;;;;;;;11.98;10.88;;;14.90;99.90;;;;;;5043122;28;20057;-56
2022/10/01 08:19:05;;;;;;;11.35;10.35;;;14.90;99.90;;;;;;5041399;28;20013;-56
2022/10/01 08:21:34;;;;;;;12.20;10.55;;;14.80;99.90;;;;;;5067433;28;20047;-57
2022/10/01 08:24:00;;;;;;;11.18;10.15;;;14.90;99.90;;;;;;5048771;28;20095;-56
2022/10/01 08:26:25;;;;;;;13.43;12.00;;;14.80;99.90;;;;;;5034594;28;20041;-55
2022/10/01 08:28:51;;;;;;;12.32;11.02;;;14.80;99.90;;;;;;5049802;28;20057;-56
2022/10/01 08:31:16;;;;;;;11.25;10.25;;;14.80;99.90;;;;;;5053675;28;20033;-56
2022/10/01 08:33:42;;;;;;;9.63;8.73;;;14.90;99.90;;;;;;5050568;28;20028;-57
2022/10/01 08:36:07;;;;;;;11.13;10.07;;;14.90;99.90;;;;;;5051584;28;20086;-56
2022/10/01 08:38:34;;;;;;;9.95;8.45;;;14.90;99.90;;;;;;5054221;28;20068;-56
2022/10/01 08:41:16;;;;;;;10.27;9.23;;;15.00;99.90;;;;;;5041647;28;20072;-57
2022/10/01 08:43:41;;;;;;;10.63;9.60;;;15.10;99.90;;;;;;5055071;28;20051;-55
2022/10/01 08:46:14;;;;;;;9.43;8.50;;;15.20;99.90;;;;;;5055367;28;20532;-57
2022/10/01 08:48:45;;;;;;;9.50;8.52;;;15.40;99.90;;;;;;5052252;28;20017;-56
2022/10/01 08:51:20;;;;;;;7.70;6.95;;;15.40;99.90;;;;;;5047063;28;20025;-56
2022/10/01 08:53:56;;;;;;;7.32;5.10;;;15.30;99.90;;;;;;5043045;28;20540;-58
2022/10/01 08:56:34;;;;;;;5.63;4.85;;;15.30;99.90;;;;;;5054569;28;20102;-57
2022/10/01 08:59:09;;;;;;;7.55;3.90;;;15.30;99.90;;;;;;5054987;28;20025;-57
2022/10/01 09:01:35;;;;;;;2.83;2.53;;;15.30;99.90;;;;;;5054678;28;20055;-57
2022/10/01 09:04:01;;;;;;;6.53;3.50;;;15.30;99.90;;;;;;5053841;28;20116;-56
2022/10/01 09:06:27;;;;;;;2.90;2.63;;;15.50;99.90;;;;;;5041387;28;20055;-55
2022/10/01 09:09:11;;;;;;;6.07;2.88;;;15.60;99.90;;;;;;5053977;28;20163;-57
2022/10/01 09:11:43;;;;;;;4.47;2.33;;;15.80;99.90;;;;;;5043678;28;20032;-55
2022/10/01 09:14:34;;;;;;;3.67;2.08;;;15.90;99.90;;;;;;5054465;28;20044;-57
2022/10/01 09:17:04;;;;;;;3.42;1.23;;;15.90;99.90;;;;;;5054217;28;20135;-54
2022/10/01 09:19:56;;;;;;;4.32;1.42;;;16.10;99.90;;;;;;5042666;28;20029;-57
2022/10/01 09:22:40;;;;;;;4.05;1.05;;;16.20;99.90;;;;;;5053485;28;20071;-57
2022/10/01 09:25:11;;;;;;;5.72;1.40;;;16.30;99.90;;;;;;5054570;28;20126;-55
2022/10/01 09:27:37;;;;;;;1.67;0.93;;;16.30;99.90;;;;;;5054335;28;20115;-57
2022/10/01 09:30:05;;;;;;;3.67;1.10;;;16.30;99.90;;;;;;5046351;28;20105;-57
2022/10/01 09:33:01;;;;;;;3.67;0.80;;;16.30;99.90;;;;;;5063000;28;20120;-57
2022/10/01 09:35:53;;;;;;;4.60;1.15;;;16.40;99.90;;;;;;5041000;28;20111;-57
2022/10/01 09:38:39;;;;;;;2.85;0.90;;;16.40;99.90;;;;;;5044969;28;20075;-56
2022/10/01 09:41:06;;;;;;;3.85;1.15;;;16.40;99.90;;;;;;5046374;28;20064;-57
2022/10/01 09:43:33;;;;;;;5.75;1.30;;;16.40;99.90;;;;;;5047839;28;20025;-57
2022/10/01 09:46:01;;;;;;;7.30;1.77;;;16.40;99.90;;;;;;5053922;28;20025;-56
2022/10/01 09:48:44;;;;;;;9.25;1.70;;;16.40;99.90;;;;;;5052434;28;20295;-56
2022/10/01 09:51:44;;;;;;;8.40;1.65;;;16.40;99.90;;;;;;5054121;28;20021;-57
2022/10/01 09:54:31;;;;;;;5.32;1.05;;;16.40;99.90;;;;;;5045347;28;20057;-56
2022/10/01 09:57:12;;;;;;;3.17;0.98;;;16.40;99.90;;;;;;5032885;28;20615;-57
2022/10/01 10:00:16;;;;;;;4.30;1.10;;;16.40;99.90;;;;;;5065532;28;20035;-57
2022/10/01 10:02:44;;;;;;;5.07;1.40;;;16.50;99.90;;;;;;5003134;28;20530;-56
2022/10/01 10:05:17;;;;;;;4.40;1.23;;;16.40;99.90;;;;;;5041928;28;20484;-57
2022/10/01 10:08:00;;;;;;;6.13;1.05;;;16.30;99.90;;;;;;5053041;28;20025;-56
2022/10/01 10:10:34;;;;;;;7.40;1.02;;;16.30;99.90;;;;;;5052117;28;20118;-57
2022/10/01 10:13:09;;;;;;;6.40;0.80;;;16.20;99.90;;;;;;5040588;28;20035;-57
2022/10/01 10:15:45;;;;;;;3.35;0.50;;;16.20;99.90;;;;;;5053385;28;20025;-57
2022/10/01 10:18:17;;;;;;;4.45;0.60;;;16.10;99.90;;;;;;5053088;28;20052;-56
2022/10/01 10:20:44;;;;;;;4.18;0.70;;;15.90;99.90;;;;;;5052491;28;20024;-56
2022/10/01 10:23:17;;;;;;;4.50;0.80;;;15.80;99.90;;;;;;5053599;28;20020;-57
2022/10/01 10:25:42;;;;;;;5.22;0.90;;;15.70;99.90;;;;;;5053022;28;20032;-56
2022/10/01 10:28:22;;;;;;;2.40;0.60;;;15.60;99.90;;;;;;5052004;28;20021;-57
2022/10/01 10:30:53;;;;;;;2.28;0.68;;;15.70;99.90;;;;;;5057367;28;20029;-57
2022/10/01 10:33:20;;;;;;;4.90;0.85;;;15.60;99.90;;;;;;5053474;28;20021;-56
2022/10/01 10:36:00;;;;;;;6.40;1.00;;;15.60;99.90;;;;;;5052798;28;20048;-56
2022/10/01 10:38:28;;;;;;;;;;;15.80;99.90;;;;;;5053359;28;20033;-57
2022/10/01 10:40:53;;;;;;;6.90;0.80;;;16.30;99.90;;;;;;5052646;28;19920;-57
2022/10/01 10:43:23;;;;;;;4.38;0.80;;;16.60;99.90;;;;;;5051941;28;20087;-57
2022/10/01 10:45:54;;;;;;;5.55;1.00;;;16.60;99.90;;;;;;5051753;28;20025;-57
2022/10/01 10:48:23;;;;;;;5.93;1.00;;;16.50;99.90;;;;;;5039995;28;20088;-55
2022/10/01 10:50:49;;;;;;;6.20;1.13;;;16.30;99.90;;;;;;5042054;28;20029;-57
2022/10/01 10:53:22;;;;;;;6.32;1.38;;;16.20;99.90;;;;;;5068057;28;20531;-57
2022/10/01 10:56:01;;;;;;;6.50;0.90;;;16.20;99.90;;;;;;5051648;28;20021;-57
2022/10/01 10:58:32;;;;;;;8.20;1.10;;;16.20;99.90;;;;;;5052039;28;20027;-57
2022/10/01 11:01:20;;;;;;;6.70;0.85;;;17.00;99.90;;;;;;5052191;28;20068;-57
2022/10/01 11:03:48;;;;;;;6.28;0.90;;;20.80;99.90;;;;;;5052186;28;20065;-57
2022/10/01 11:06:32;;;;;;;6.35;1.00;;;24.90;94.40;;;;;;5051094;28;20017;-57
2022/10/01 11:09:03;;;;;;;4.05;0.98;;;27.40;87.20;;;;;;5052189;28;20067;-58
2022/10/01 11:11:47;;;;;;;5.07;1.17;;;30.10;76.80;;;;;;5052694;28;20083;-58
2022/10/01 11:14:42;;;;;;;5.03;1.48;;;32.10;66.90;;;;;;5051870;28;20024;-58
2022/10/01 11:17:21;;;;;;;4.40;1.00;;;34.20;57.10;;;;;;5052266;28;20078;-58
2022/10/01 11:20:11;;;;;;;6.55;1.98;;;35.90;51.30;;;;;;5052339;28;20025;-59
2022/10/01 11:23:02;;;;;;;4.25;1.50;;;37.00;49.30;;;;;;5039579;28;20486;-58
2022/10/01 11:25:33;;;;;;;6.18;1.95;;;38.00;45.50;;;;;;5052100;28;20028;-59
2022/10/01 11:28:29;;;;;;;4.70;1.05;;;38.70;43.50;;;;;;5045385;28;20036;-59
2022/10/01 11:31:14;;;;;;;3.33;1.20;;;39.60;42.80;;;;;;5016014;28;20520;-59
2022/10/01 11:34:11;;;;;;;5.50;1.67;;;40.50;41.50;;;;;;5032709;28;20029;-59
2022/10/01 11:36:59;;;;;;;3.83;1.10;;;41.40;40.60;;;;;;5032297;28;20044;-59
2022/10/01 11:39:26;;;;;;;3.78;1.20;;;40.80;38.50;;;;;;5045193;28;20056;-59
2022/10/01 11:42:06;;;;;;;6.25;1.50;;;38.10;39.10;;;;;;5032434;28;20523;-59
2022/10/01 11:45:01;;;;;;;3.80;0.98;;;35.20;41.60;;;;;;5032404;28;20033;-59
2022/10/01 11:47:51;;;;;;;5.05;1.13;;;32.80;44.30;;;;;;5049964;28;20473;-58
2022/10/01 11:50:24;;;;;;;2.95;1.00;;;30.80;46.90;;;;;;5050847;28;20029;-58
2022/10/01 11:53:10;;;;;;;4.32;1.17;;;30.70;48.80;;;;;;5039287;28;20022;-59
2022/10/01 11:58:50;;;;;;;4.22;1.00;;;31.40;46.30;;;;;;5052152;28;20162;-58
2022/10/01 12:01:22;;;;;;;4.57;1.27;;;29.80;47.90;;;;;;5038919;28;20036;-58
2022/10/01 12:04:02;;;;;;;6.10;1.52;;;28.70;50.00;;;;;;5041347;28;20128;-58
2022/10/01 12:06:34;;;;;;;5.63;1.40;;;27.70;51.60;;;;;;5045388;28;20013;-58
2022/10/01 12:09:10;;;;;;;6.10;1.27;;;27.20;53.10;;;;;;5044129;28;20491;-58
2022/10/01 12:12:04;;;;;;;5.43;1.55;;;26.90;53.70;;;;;;5034871;28;20021;-58
2022/10/01 12:14:49;;;;;;;5.38;1.65;;;26.40;54.90;;;;;;5049799;28;20378;-58
2022/10/01 12:17:24;;;;;;;4.50;1.20;;;27.20;55.00;;;;;;5041229;28;20441;-58
2022/10/01 12:20:00;;;;;;;4.90;1.33;;;29.50;52.20;;;;;;5044381;28;20389;-58
2022/10/01 12:22:36;;;;;;;2.80;1.10;;;31.20;49.60;;;;;;5036083;28;20075;-58
2022/10/01 12:25:02;;;;;;;3.83;1.20;;;32.70;46.90;;;;;;5049375;28;20043;-58
2022/10/01 12:27:52;;;;;;;4.93;1.30;;;33.70;45.60;;;;;;5042653;28;20047;-59
2022/10/01 12:30:20;;;;;;;3.58;1.10;;;34.50;44.40;;;;;;5055817;28;20025;-59
2022/10/01 12:33:21;;;;;;;5.25;1.30;;;35.00;43.30;;;;;;5054019;28;20017;-59
2022/10/01 12:36:09;;;;;;;5.25;1.10;;;34.70;42.90;;;;;;5051430;28;20507;-58
2022/10/01 12:39:04;;;;;;;;;;;34.50;42.70;;;;;;5048357;28;20017;-58
2022/10/01 12:41:42;;;;;;;2.13;0.90;;;33.10;43.70;;;;;;5024674;28;20293;-58
2022/10/01 12:44:26;;;;;;;3.72;1.15;;;31.20;46.40;;;;;;5050975;28;20018;-58
2022/10/01 12:47:11;;;;;;;4.43;1.23;;;29.90;48.00;;;;;;5054191;28;20049;-58
2022/10/01 12:49:48;;;;;;;4.60;1.23;;;29.20;49.90;;;;;;5054865;28;20032;-58
2022/10/01 12:52:44;;;;;;;5.18;1.08;;;29.00;49.60;;;;;;5055058;28;20473;-58
2022/10/01 12:55:47;;;;;;;4.95;1.10;;;29.60;49.40;;;;;;5054904;28;20031;-58
2022/10/01 12:58:21;;;;;;;4.95;1.20;;;28.90;48.50;;;;;;5046637;28;20028;-58
2022/10/01 13:00:55;;;;;;;4.70;1.05;;;27.90;50.00;;;;;;5043892;28;20119;-58
2022/10/01 13:03:42;;;;;;;3.47;0.98;;;27.00;51.60;;;;;;5052405;28;20021;-58
2022/10/01 13:06:38;;;;;;;4.65;1.15;;;26.20;53.10;;;;;;5054414;28;20022;-58
2022/10/01 13:09:19;;;;;;;4.82;1.08;;;25.50;53.60;;;;;;5045548;28;20018;-59
2022/10/01 13:12:07;;;;;;;5.05;1.17;;;25.00;55.10;;;;;;5052481;28;20104;-58
2022/10/01 13:14:34;;;;;;;3.95;0.90;;;26.20;54.80;;;;;;5052954;28;20032;-58